Time;durP1;ratioP1;P1;durP2;ratioP2;P2;SDS_P1;SDS_P2;PMS_P1;PMS_P2;Temp;Humidity;BMP_temperature;BMP_pressure;BME280_temperature;BME280_humidity;BME280_pressure;Samples;Min_cycle;Max_cycle;Signal;HPM_P1;HPM_P2
2021/05/29 00:02:16;;;;;;;6.27;5.50;;;9.30;99.90;;;;;;5072329;28;20203;-69
2021/05/29 00:04:44;;;;;;;7.03;5.60;;;9.30;99.90;;;;;;5075550;28;20200;-68
2021/05/29 00:07:12;;;;;;;6.93;5.77;;;9.30;99.90;;;;;;5072877;28;20208;-68
2021/05/29 00:09:40;;;;;;;6.47;5.73;;;9.30;99.90;;;;;;5075463;28;20275;-68
2021/05/29 00:12:09;;;;;;;7.00;6.30;;;9.20;99.90;;;;;;5074776;28;20193;-68
2021/05/29 00:14:38;;;;;;;7.07;5.63;;;9.20;99.90;;;;;;5075267;28;20629;-68
2021/05/29 00:17:07;;;;;;;6.87;6.03;;;9.10;99.90;;;;;;5075624;28;20743;-69
2021/05/29 00:19:34;;;;;;;7.57;6.37;;;9.00;99.90;;;;;;5075471;28;20232;-69
2021/05/29 00:22:03;;;;;;;6.67;6.07;;;9.00;99.90;;;;;;5075726;28;20291;-69
2021/05/29 00:24:31;;;;;;;6.90;6.20;;;9.10;99.90;;;;;;5075759;28;20203;-69
2021/05/29 00:26:59;;;;;;;7.03;6.33;;;9.10;99.90;;;;;;5073384;28;20196;-68
2021/05/29 00:29:26;;;;;;;7.67;6.90;;;9.10;99.90;;;;;;5074883;28;20239;-68
2021/05/29 00:31:54;;;;;;;6.80;6.10;;;9.10;99.90;;;;;;5075266;28;20546;-68
2021/05/29 00:34:21;;;;;;;7.63;6.83;;;9.10;99.90;;;;;;5074679;28;20209;-68
2021/05/29 00:36:48;;;;;;;8.53;6.63;;;9.00;99.90;;;;;;5075075;28;20203;-68
2021/05/29 00:39:17;;;;;;;8.03;7.23;;;8.90;99.90;;;;;;5075229;28;20667;-68
2021/05/29 00:41:44;;;;;;;7.93;7.13;;;8.80;99.90;;;;;;5074667;28;20664;-68
2021/05/29 00:44:14;;;;;;;9.27;7.00;;;8.80;99.90;;;;;;5074954;28;20283;-68
2021/05/29 00:46:41;;;;;;;7.50;6.70;;;8.60;99.90;;;;;;5094089;28;20196;-68
2021/05/29 00:49:09;;;;;;;7.70;6.90;;;8.60;99.90;;;;;;5095259;28;20254;-69
2021/05/29 00:51:37;;;;;;;8.73;7.40;;;8.50;99.90;;;;;;5095074;28;20228;-68
2021/05/29 00:54:05;;;;;;;10.73;9.60;;;8.50;99.90;;;;;;5094945;28;20206;-67
2021/05/29 00:56:34;;;;;;;10.90;9.80;;;8.50;99.90;;;;;;5055855;28;20211;-68
2021/05/29 00:59:02;;;;;;;9.37;8.47;;;8.50;99.90;;;;;;5054786;28;20202;-68
2021/05/29 01:01:29;;;;;;;9.80;8.80;;;8.40;99.90;;;;;;5054983;28;20224;-68
2021/05/29 01:03:57;;;;;;;8.27;7.47;;;8.40;99.90;;;;;;5055012;28;20681;-67
2021/05/29 01:06:24;;;;;;;9.10;8.17;;;8.30;99.90;;;;;;5054488;28;20201;-68
2021/05/29 01:08:52;;;;;;;8.70;7.80;;;8.30;99.90;;;;;;5054507;28;20221;-67
2021/05/29 01:11:19;;;;;;;9.30;7.63;;;8.30;99.90;;;;;;5054040;28;20206;-68
2021/05/29 01:13:48;;;;;;;8.97;7.00;;;8.30;99.90;;;;;;5054218;28;20197;-68
2021/05/29 01:16:30;;;;;;;7.90;7.10;;;8.30;99.90;;;;;;5053902;28;20197;-68
2021/05/29 01:18:57;;;;;;;7.67;6.90;;;8.30;99.90;;;;;;5054160;28;20192;-66
2021/05/29 01:21:24;;;;;;;7.60;6.53;;;8.40;99.90;;;;;;5054513;28;20292;-68
2021/05/29 01:23:54;;;;;;;8.40;6.77;;;8.50;99.90;;;;;;5054150;28;20301;-67
2021/05/29 01:26:21;;;;;;;7.70;6.27;;;8.50;99.90;;;;;;5053755;28;20215;-68
2021/05/29 01:28:53;;;;;;;7.33;6.47;;;8.40;99.90;;;;;;5053829;28;20253;-67
2021/05/29 01:31:25;;;;;;;8.33;6.90;;;8.30;99.90;;;;;;5054179;28;20213;-68
2021/05/29 01:33:56;;;;;;;7.97;6.60;;;8.40;99.90;;;;;;5054207;28;20194;-68
2021/05/29 01:36:24;;;;;;;9.37;7.57;;;8.30;99.90;;;;;;5053688;28;20212;-68
2021/05/29 01:38:53;;;;;;;8.30;6.87;;;8.40;99.90;;;;;;5053883;28;20202;-68
2021/05/29 01:41:24;;;;;;;8.17;7.30;;;8.40;99.90;;;;;;5053873;28;20208;-69
2021/05/29 01:43:52;;;;;;;6.97;6.27;;;8.30;99.90;;;;;;5054108;28;20186;-68
2021/05/29 01:46:21;;;;;;;8.77;6.57;;;8.30;99.90;;;;;;5085565;28;20212;-68
2021/05/29 01:48:50;;;;;;;8.83;7.50;;;8.20;99.90;;;;;;5094114;28;20308;-68
2021/05/29 01:51:19;;;;;;;8.47;7.63;;;8.20;99.90;;;;;;5093932;28;20266;-68
2021/05/29 01:53:47;;;;;;;9.67;8.13;;;8.10;99.90;;;;;;5094061;28;20231;-67
2021/05/29 01:56:15;;;;;;;9.87;8.87;;;8.00;99.90;;;;;;5093404;28;20200;-69
2021/05/29 01:58:44;;;;;;;9.50;8.30;;;8.00;99.90;;;;;;5093974;28;20195;-67
2021/05/29 02:01:13;;;;;;;10.00;8.57;;;7.90;99.90;;;;;;5093394;28;20738;-69
2021/05/29 02:03:44;;;;;;;9.47;8.47;;;7.90;99.90;;;;;;5094186;28;20210;-68
2021/05/29 02:06:12;;;;;;;9.87;8.60;;;8.00;99.90;;;;;;5093825;28;20279;-68
2021/05/29 02:08:39;;;;;;;10.30;9.00;;;8.00;99.90;;;;;;5093712;28;20223;-68
2021/05/29 02:11:07;;;;;;;10.40;9.30;;;8.00;99.90;;;;;;5093574;28;20207;-68
2021/05/29 02:13:38;;;;;;;10.83;9.43;;;8.00;99.90;;;;;;5093344;28;20229;-68
2021/05/29 02:16:08;;;;;;;11.67;10.37;;;8.10;99.90;;;;;;5093376;28;20184;-69
2021/05/29 02:18:37;;;;;;;10.33;9.23;;;8.00;99.90;;;;;;5093610;28;20196;-68
2021/05/29 02:21:06;;;;;;;11.37;10.17;;;7.90;99.90;;;;;;5093580;28;20303;-67
2021/05/29 02:23:36;;;;;;;11.20;10.00;;;7.90;99.90;;;;;;5093481;28;20607;-67
2021/05/29 02:26:06;;;;;;;12.40;10.80;;;7.80;99.90;;;;;;5092440;28;20286;-67
2021/05/29 02:28:36;;;;;;;13.70;12.13;;;7.80;99.90;;;;;;5093476;28;20209;-70
2021/05/29 02:31:05;;;;;;;13.30;11.77;;;7.70;99.90;;;;;;5093008;28;20730;-67
2021/05/29 02:33:33;;;;;;;15.20;11.83;;;7.70;99.90;;;;;;5093471;28;20571;-69
2021/05/29 02:36:01;;;;;;;15.23;11.63;;;7.80;99.90;;;;;;5093262;28;20204;-68
2021/05/29 02:38:29;;;;;;;13.97;11.47;;;7.80;99.90;;;;;;5093196;28;20202;-68
2021/05/29 02:40:56;;;;;;;14.83;12.40;;;7.80;99.90;;;;;;5092899;28;20299;-68
2021/05/29 02:43:24;;;;;;;13.63;12.00;;;7.80;99.90;;;;;;5093097;28;20283;-68
2021/05/29 02:45:53;;;;;;;13.73;11.53;;;7.90;99.90;;;;;;5080684;28;20793;-68
2021/05/29 02:48:21;;;;;;;14.50;12.17;;;7.90;99.90;;;;;;5072507;28;20223;-70
2021/05/29 02:50:48;;;;;;;17.07;14.53;;;7.90;99.90;;;;;;5072905;28;20238;-68
2021/05/29 02:53:16;;;;;;;16.70;13.83;;;7.90;99.90;;;;;;5072889;28;20185;-68
2021/05/29 02:55:44;;;;;;;19.43;15.17;;;7.80;99.90;;;;;;5072451;28;20299;-69
2021/05/29 02:58:12;;;;;;;17.83;15.93;;;7.80;99.90;;;;;;5072837;28;20199;-69
2021/05/29 03:00:43;;;;;;;19.60;16.50;;;7.70;99.90;;;;;;5072185;28;20295;-69
2021/05/29 03:03:11;;;;;;;19.83;17.07;;;7.80;99.90;;;;;;5072744;28;20607;-68
2021/05/29 03:05:41;;;;;;;19.17;15.97;;;7.70;99.90;;;;;;5072679;28;20200;-68
2021/05/29 03:08:09;;;;;;;20.17;17.17;;;7.80;99.90;;;;;;5072313;28;20220;-68
2021/05/29 03:10:36;;;;;;;18.67;15.47;;;7.70;99.90;;;;;;5072429;28;20201;-68
2021/05/29 03:13:07;;;;;;;17.13;14.57;;;7.70;99.90;;;;;;5072489;28;20203;-69
2021/05/29 03:15:35;;;;;;;19.00;15.13;;;7.60;99.90;;;;;;5072271;28;20189;-68
2021/05/29 03:18:05;;;;;;;14.87;12.90;;;7.70;99.90;;;;;;5072446;28;20201;-67
2021/05/29 03:20:34;;;;;;;15.50;13.37;;;7.70;99.90;;;;;;5072495;28;20287;-68
2021/05/29 03:23:02;;;;;;;17.37;12.53;;;7.70;99.90;;;;;;5072178;28;20240;-68
2021/05/29 03:25:29;;;;;;;15.53;12.17;;;7.80;99.90;;;;;;5072182;28;20215;-68
2021/05/29 03:27:57;;;;;;;14.97;12.60;;;7.70;99.90;;;;;;5072436;28;20203;-68
2021/05/29 03:30:28;;;;;;;13.87;12.20;;;7.70;99.90;;;;;;5072459;28;20530;-69
2021/05/29 03:32:56;;;;;;;14.77;10.80;;;7.70;99.90;;;;;;5072461;28;20192;-68
2021/05/29 03:35:24;;;;;;;14.40;11.00;;;7.90;99.90;;;;;;5072507;28;20675;-68
2021/05/29 03:37:52;;;;;;;12.50;10.53;;;8.00;99.90;;;;;;5075518;28;20200;-68
2021/05/29 03:40:20;;;;;;;12.50;11.20;;;8.00;99.90;;;;;;5075733;28;20208;-68
2021/05/29 03:42:48;;;;;;;12.03;10.33;;;8.00;99.90;;;;;;5076256;28;20225;-68
2021/05/29 03:45:18;;;;;;;13.57;11.50;;;8.10;99.90;;;;;;5083046;28;20203;-69
2021/05/29 03:47:47;;;;;;;11.93;10.47;;;8.10;99.90;;;;;;5096591;28;20264;-68
2021/05/29 03:50:18;;;;;;;13.87;10.80;;;8.10;99.90;;;;;;5096097;28;20224;-69
2021/05/29 03:52:45;;;;;;;13.03;9.63;;;8.20;99.90;;;;;;5096281;28;20664;-68
2021/05/29 03:55:16;;;;;;;11.00;9.40;;;8.30;99.90;;;;;;5095999;28;20199;-67
2021/05/29 03:57:44;;;;;;;12.33;9.30;;;8.30;99.90;;;;;;5096417;28;20194;-69
2021/05/29 04:00:15;;;;;;;10.57;9.47;;;8.40;99.90;;;;;;5095936;28;20201;-68
2021/05/29 04:02:43;;;;;;;12.20;9.27;;;8.40;99.90;;;;;;5096241;28;20274;-68
2021/05/29 04:05:12;;;;;;;10.00;9.00;;;8.40;99.90;;;;;;5095804;28;20204;-69
2021/05/29 04:07:39;;;;;;;11.33;9.10;;;8.40;99.90;;;;;;5095691;28;20663;-69
2021/05/29 04:10:08;;;;;;;9.90;8.47;;;8.50;99.90;;;;;;5095318;28;20224;-69
2021/05/29 04:12:37;;;;;;;9.80;8.77;;;8.70;99.90;;;;;;5095952;28;20566;-68
2021/05/29 04:15:06;;;;;;;10.90;9.80;;;8.70;99.90;;;;;;5095673;28;20228;-69
2021/05/29 04:17:33;;;;;;;10.93;8.43;;;8.80;99.90;;;;;;5095960;28;20200;-68
2021/05/29 04:20:00;;;;;;;9.43;8.37;;;9.00;99.90;;;;;;5095845;28;20594;-69
2021/05/29 04:22:28;;;;;;;11.37;9.00;;;9.30;99.90;;;;;;5095503;28;20200;-67
2021/05/29 04:24:55;;;;;;;8.87;7.03;;;9.50;99.90;;;;;;5095179;28;20200;-68
2021/05/29 04:27:22;;;;;;;7.87;6.70;;;9.70;99.90;;;;;;5095626;28;20626;-67
2021/05/29 04:29:51;;;;;;;7.93;6.70;;;9.80;99.90;;;;;;5095157;28;20222;-68
2021/05/29 04:32:18;;;;;;;7.47;6.40;;;10.00;99.90;;;;;;5095263;28;20670;-68
2021/05/29 04:34:46;;;;;;;7.20;6.50;;;10.20;99.90;;;;;;5095210;28;20716;-68
2021/05/29 04:37:16;;;;;;;8.37;6.87;;;10.30;99.90;;;;;;5094947;28;20210;-69
2021/05/29 04:39:43;;;;;;;8.60;7.23;;;10.20;99.90;;;;;;5083183;28;20196;-69
2021/05/29 04:42:11;;;;;;;8.07;6.87;;;10.20;99.90;;;;;;5074835;28;20236;-69
2021/05/29 04:44:38;;;;;;;7.90;6.03;;;10.20;99.90;;;;;;5076839;28;20203;-68
2021/05/29 04:47:07;;;;;;;7.00;6.30;;;10.10;99.90;;;;;;5094903;28;20299;-68
2021/05/29 04:49:34;;;;;;;7.73;6.00;;;10.00;99.90;;;;;;5094114;28;20280;-67
2021/05/29 04:52:01;;;;;;;7.10;5.63;;;10.00;99.90;;;;;;5094811;28;20698;-68
2021/05/29 04:54:29;;;;;;;6.47;5.40;;;10.30;99.90;;;;;;5094835;28;20290;-68
2021/05/29 04:56:56;;;;;;;6.13;5.37;;;10.80;99.90;;;;;;5084704;28;20188;-69
2021/05/29 04:59:24;;;;;;;6.60;5.03;;;11.30;99.90;;;;;;5074657;28;20200;-67
2021/05/29 05:01:51;;;;;;;9.33;7.07;;;11.60;99.90;;;;;;5073843;28;20660;-68
2021/05/29 05:04:19;;;;;;;6.60;5.67;;;11.60;99.90;;;;;;5074714;28;20298;-68
2021/05/29 05:06:47;;;;;;;7.47;5.87;;;11.50;99.90;;;;;;5074588;28;20305;-69
2021/05/29 05:09:14;;;;;;;6.67;5.43;;;11.50;99.90;;;;;;5074225;28;20320;-68
2021/05/29 05:11:42;;;;;;;7.57;6.00;;;11.40;99.90;;;;;;5074258;28;20669;-68
2021/05/29 05:14:09;;;;;;;9.10;6.40;;;11.20;99.90;;;;;;5074444;28;20231;-68
2021/05/29 05:16:36;;;;;;;8.23;5.77;;;11.00;99.90;;;;;;5074110;28;20279;-68
2021/05/29 05:19:04;;;;;;;10.00;5.97;;;10.80;99.90;;;;;;5074421;28;20201;-69
2021/05/29 05:21:32;;;;;;;6.57;5.97;;;10.80;99.90;;;;;;5074001;28;20710;-60
2021/05/29 05:23:59;;;;;;;7.33;6.30;;;10.80;99.90;;;;;;5073872;28;20200;-60
2021/05/29 05:26:27;;;;;;;7.40;6.47;;;10.80;99.90;;;;;;5073604;28;20748;-59
2021/05/29 05:28:54;;;;;;;7.00;6.23;;;10.90;99.90;;;;;;5073691;28;20220;-59
2021/05/29 05:31:21;;;;;;;7.10;6.40;;;10.90;99.90;;;;;;5073867;28;20204;-60
2021/05/29 05:33:50;;;;;;;8.93;7.00;;;11.00;99.90;;;;;;5073788;28;20207;-60
2021/05/29 05:36:18;;;;;;;8.20;6.70;;;11.00;99.90;;;;;;5073825;28;20605;-59
2021/05/29 05:38:46;;;;;;;9.87;7.20;;;11.00;99.90;;;;;;5073577;28;20291;-59
2021/05/29 05:41:14;;;;;;;11.00;6.73;;;11.10;99.90;;;;;;5073894;28;20205;-60
2021/05/29 05:43:42;;;;;;;10.07;7.30;;;11.20;99.90;;;;;;5073922;28;20307;-60
2021/05/29 05:46:12;;;;;;;9.67;7.43;;;11.30;99.90;;;;;;5087812;28;20308;-59
2021/05/29 05:48:39;;;;;;;9.07;7.43;;;11.50;99.90;;;;;;5093934;28;20200;-59
2021/05/29 05:51:07;;;;;;;9.10;7.03;;;11.70;99.90;;;;;;5093492;28;20796;-60
2021/05/29 05:53:34;;;;;;;11.10;8.10;;;11.80;99.90;;;;;;5082058;28;20185;-60
2021/05/29 05:56:05;;;;;;;10.03;7.50;;;12.00;99.90;;;;;;5073314;28;20409;-59
2021/05/29 05:58:34;;;;;;;9.70;6.93;;;12.10;99.90;;;;;;5073657;28;20181;-60
2021/05/29 06:01:03;;;;;;;9.00;6.97;;;12.10;99.90;;;;;;5072232;28;20296;-60
2021/05/29 06:03:30;;;;;;;10.57;7.13;;;12.20;99.90;;;;;;5072968;28;20204;-60
2021/05/29 06:05:58;;;;;;;11.03;7.30;;;12.40;99.90;;;;;;5073407;28;20292;-60
2021/05/29 06:08:25;;;;;;;10.40;7.37;;;12.60;99.90;;;;;;5073118;28;20208;-60
2021/05/29 06:10:53;;;;;;;9.27;7.07;;;12.90;99.90;;;;;;5072905;28;20668;-59
2021/05/29 06:13:34;;;;;;;20.43;7.33;;;13.00;99.90;;;;;;5073058;28;20291;-60
2021/05/29 06:19:11;;;;;;;10.53;7.03;;;13.00;99.90;;;;;;5073250;28;20192;-59
2021/05/29 06:21:43;;;;;;;9.30;7.97;;;13.10;99.90;;;;;;5072741;28;20681;-60
2021/05/29 06:24:10;;;;;;;8.50;7.47;;;13.30;99.90;;;;;;5072998;28;20181;-60
2021/05/29 06:26:38;;;;;;;9.13;7.40;;;13.50;99.90;;;;;;5072707;28;20201;-59
2021/05/29 06:29:06;;;;;;;10.53;8.13;;;13.80;99.90;;;;;;5072285;28;20311;-59
2021/05/29 06:31:33;;;;;;;10.93;8.33;;;14.10;99.90;;;;;;5072552;28;20201;-59
2021/05/29 06:34:01;;;;;;;11.63;8.17;;;14.10;99.90;;;;;;5073240;28;20238;-60
2021/05/29 06:36:29;;;;;;;13.70;8.93;;;14.10;99.90;;;;;;5072906;28;20296;-60
2021/05/29 06:38:56;;;;;;;11.43;8.87;;;14.30;99.90;;;;;;5071990;28;20706;-60
2021/05/29 06:41:23;;;;;;;11.23;9.00;;;14.50;99.90;;;;;;5072887;28;20207;-61
2021/05/29 06:43:51;;;;;;;9.50;8.03;;;14.70;99.90;;;;;;5072919;28;20303;-59
2021/05/29 06:46:19;;;;;;;12.40;8.10;;;15.10;99.90;;;;;;5088480;28;20196;-59
2021/05/29 06:48:47;;;;;;;9.88;8.48;;;15.20;99.90;;;;;;5085543;28;20224;-60
2021/05/29 06:51:18;;;;;;;11.20;7.68;;;15.40;99.90;;;;;;5072442;28;20235;-60
2021/05/29 06:53:48;;;;;;;11.37;9.00;;;15.40;99.90;;;;;;5072162;28;20185;-59
2021/05/29 06:59:02;;;;;;;10.32;9.13;;;15.50;99.90;;;;;;5072717;28;20204;-59
2021/05/29 07:01:30;;;;;;;10.05;9.05;;;15.40;99.90;;;;;;5072216;28;20680;-60
2021/05/29 07:03:58;;;;;;;11.45;8.30;;;15.30;99.90;;;;;;5072584;28;20207;-59
2021/05/29 07:06:26;;;;;;;10.45;8.80;;;15.20;99.90;;;;;;5072003;28;20566;-60
2021/05/29 07:08:56;;;;;;;10.13;8.48;;;15.30;99.90;;;;;;5072078;28;20292;-59
2021/05/29 07:11:23;;;;;;;11.40;8.82;;;15.50;99.90;;;;;;5071559;28;20307;-60
2021/05/29 07:13:51;;;;;;;9.60;8.60;;;15.70;99.90;;;;;;5072522;28;20250;-60
2021/05/29 07:16:19;;;;;;;9.30;8.25;;;15.80;99.90;;;;;;5071627;28;20207;-60
2021/05/29 07:18:48;;;;;;;13.02;9.05;;;15.50;99.90;;;;;;5069451;28;20227;-60
2021/05/29 07:21:17;;;;;;;10.52;8.30;;;15.40;99.90;;;;;;5071257;28;20277;-59
2021/05/29 07:23:45;;;;;;;8.93;8.02;;;15.40;99.90;;;;;;5052109;28;20197;-60
2021/05/29 07:26:13;;;;;;;11.95;8.13;;;15.10;99.90;;;;;;5071492;28;20589;-60
2021/05/29 07:28:41;;;;;;;9.27;8.27;;;14.80;99.90;;;;;;5072236;28;20300;-60
2021/05/29 07:31:09;;;;;;;10.75;7.50;;;14.50;99.90;;;;;;5072009;28;20408;-61
2021/05/29 07:33:36;;;;;;;8.98;7.32;;;14.30;99.90;;;;;;5072284;28;20205;-60
2021/05/29 07:36:05;;;;;;;11.68;8.07;;;14.30;99.90;;;;;;5072028;28;20771;-60
2021/05/29 07:38:33;;;;;;;10.98;8.68;;;14.60;99.90;;;;;;5071999;28;20205;-59
2021/05/29 07:41:00;;;;;;;8.50;7.30;;;14.80;99.90;;;;;;5072146;28;20575;-61
2021/05/29 07:43:31;;;;;;;10.02;7.47;;;14.80;99.90;;;;;;5072048;28;20659;-60
2021/05/29 07:45:59;;;;;;;10.33;7.27;;;14.70;99.90;;;;;;5084887;28;20286;-60
2021/05/29 07:48:26;;;;;;;12.00;7.43;;;14.60;99.90;;;;;;5092350;28;20195;-60
2021/05/29 07:51:02;;;;;;;9.23;8.07;;;14.70;99.90;;;;;;5092236;28;20262;-61
2021/05/29 07:53:32;;;;;;;9.13;7.73;;;14.80;99.90;;;;;;5092185;28;20185;-58
2021/05/29 07:56:01;;;;;;;11.02;7.30;;;15.10;99.90;;;;;;5084359;28;20182;-61
2021/05/29 07:58:28;;;;;;;9.30;6.75;;;15.60;99.90;;;;;;5071651;28;20308;-59
2021/05/29 08:00:57;;;;;;;9.13;6.85;;;16.10;99.90;;;;;;5071307;28;20189;-59
2021/05/29 08:03:26;;;;;;;8.27;6.72;;;16.50;99.90;;;;;;5071746;28;20229;-59
2021/05/29 08:05:55;;;;;;;11.05;6.07;;;16.60;99.90;;;;;;5071646;28;20205;-60
2021/05/29 08:08:23;;;;;;;6.55;5.57;;;16.60;99.90;;;;;;5071790;28;20197;-60
2021/05/29 08:10:53;;;;;;;9.50;5.80;;;16.30;99.90;;;;;;5071864;28;20227;-60
2021/05/29 08:13:21;;;;;;;7.90;5.25;;;16.10;99.90;;;;;;5071875;28;20700;-60
2021/05/29 08:15:50;;;;;;;6.68;5.90;;;15.80;99.90;;;;;;5071633;28;20232;-60
2021/05/29 08:18:19;;;;;;;8.85;6.63;;;15.60;99.90;;;;;;5072019;28;20295;-59
2021/05/29 08:20:47;;;;;;;9.85;6.45;;;15.50;99.90;;;;;;5072008;28;20213;-60
2021/05/29 08:23:15;;;;;;;11.82;7.25;;;15.50;99.90;;;;;;5072353;28;20250;-60
2021/05/29 08:25:43;;;;;;;9.00;6.35;;;15.40;99.90;;;;;;5075445;28;20201;-59
2021/05/29 08:28:11;;;;;;;9.63;6.50;;;15.50;99.90;;;;;;5075100;28;20223;-60
2021/05/29 08:30:38;;;;;;;9.02;6.55;;;15.70;99.90;;;;;;5075130;28;20223;-59
2021/05/29 08:33:06;;;;;;;9.50;6.82;;;15.60;99.90;;;;;;5075325;28;20295;-60
2021/05/29 08:35:35;;;;;;;10.10;6.60;;;15.60;99.90;;;;;;5074869;28;20740;-60
2021/05/29 08:38:03;;;;;;;7.90;6.15;;;15.40;99.90;;;;;;5074709;28;20207;-60
2021/05/29 08:40:30;;;;;;;8.40;6.63;;;15.30;99.90;;;;;;5075144;28;20201;-60
2021/05/29 08:42:58;;;;;;;7.68;5.60;;;15.30;99.90;;;;;;5074810;28;20731;-59
2021/05/29 08:45:29;;;;;;;9.23;6.15;;;15.60;99.90;;;;;;5083363;28;20291;-60
2021/05/29 08:47:57;;;;;;;7.47;5.88;;;16.00;99.90;;;;;;5095233;28;20280;-60
2021/05/29 08:50:26;;;;;;;6.18;5.57;;;16.20;99.90;;;;;;5094829;28;20314;-59
2021/05/29 08:52:53;;;;;;;6.80;5.47;;;16.10;99.90;;;;;;5094822;28;20234;-59
2021/05/29 08:55:21;;;;;;;7.90;6.05;;;16.00;99.90;;;;;;5094888;28;20210;-59
2021/05/29 08:57:50;;;;;;;6.38;5.50;;;15.90;99.90;;;;;;5086217;28;20287;-58
2021/05/29 09:00:21;;;;;;;7.07;5.55;;;15.50;99.90;;;;;;5074466;28;20471;-59
2021/05/29 09:02:57;;;;;;;13.55;6.05;;;15.50;99.90;;;;;;5074687;28;20554;-59
2021/05/29 09:05:36;;;;;;;8.35;5.78;;;15.70;99.90;;;;;;5074888;28;20588;-59
2021/05/29 09:08:08;;;;;;;8.30;5.68;;;15.50;99.90;;;;;;5074394;28;20193;-59
2021/05/29 09:10:39;;;;;;;7.53;5.82;;;15.30;99.90;;;;;;5074464;28;20205;-59
2021/05/29 09:13:10;;;;;;;9.65;5.85;;;15.30;99.90;;;;;;5074793;28;20185;-60
2021/05/29 09:15:49;;;;;;;11.85;5.30;;;15.40;99.90;;;;;;5081522;28;20650;-57
2021/05/29 09:18:30;;;;;;;8.13;5.47;;;15.60;99.90;;;;;;5094611;28;20216;-58
2021/05/29 09:21:31;;;;;;;7.43;5.00;;;15.80;99.90;;;;;;5094082;28;20193;-58
2021/05/29 09:24:02;;;;;;;7.95;5.40;;;15.60;99.90;;;;;;5031542;28;20669;-59
2021/05/29 09:26:44;;;;;;;7.55;5.45;;;15.40;99.90;;;;;;5031694;28;20281;-58
2021/05/29 09:29:16;;;;;;;8.27;5.90;;;15.10;99.90;;;;;;5068359;28;20231;-59
2021/05/29 09:32:05;;;;;;;11.18;5.72;;;15.10;99.90;;;;;;5094081;28;20220;-59
2021/05/29 09:34:38;;;;;;;7.87;5.53;;;15.20;99.90;;;;;;5089473;28;20200;-59
2021/05/29 09:37:08;;;;;;;6.90;5.30;;;15.10;99.90;;;;;;5093652;28;20242;-60
2021/05/29 09:39:37;;;;;;;8.52;5.93;;;15.20;99.90;;;;;;5093915;28;20284;-60
2021/05/29 09:42:05;;;;;;;7.95;5.13;;;15.30;99.90;;;;;;5093869;28;20207;-60
2021/05/29 09:44:33;;;;;;;6.63;4.70;;;15.40;99.90;;;;;;5091991;28;20200;-60
2021/05/29 09:47:03;;;;;;;6.50;5.30;;;15.60;99.90;;;;;;5072825;28;20204;-60
2021/05/29 09:49:48;;;;;;;7.50;4.83;;;15.70;99.90;;;;;;5073556;28;20193;-62
2021/05/29 09:52:30;;;;;;;6.22;5.40;;;15.80;99.90;;;;;;5072335;28;20699;-59
2021/05/29 09:54:59;;;;;;;10.93;5.32;;;16.10;99.90;;;;;;5072888;28;20195;-60
2021/05/29 09:57:27;;;;;;;8.82;5.55;;;16.20;99.90;;;;;;5072985;28;20201;-60
2021/05/29 09:59:56;;;;;;;5.80;5.20;;;16.20;99.90;;;;;;5073316;28;20318;-60
2021/05/29 10:02:24;;;;;;;7.97;5.40;;;16.20;99.90;;;;;;5073356;28;20197;-60
2021/05/29 10:04:55;;;;;;;6.78;4.40;;;16.20;99.90;;;;;;5073293;28;20587;-59
2021/05/29 10:07:23;;;;;;;6.43;5.80;;;16.30;99.90;;;;;;5073083;28;20307;-59
2021/05/29 10:09:52;;;;;;;7.45;5.65;;;15.90;99.90;;;;;;5073427;28;20293;-60
2021/05/29 10:12:20;;;;;;;7.18;4.90;;;16.00;99.90;;;;;;5073040;28;20235;-61
2021/05/29 10:14:47;;;;;;;4.35;3.95;;;16.20;99.90;;;;;;5073087;28;20297;-59
2021/05/29 10:17:15;;;;;;;5.30;4.28;;;16.40;99.90;;;;;;5073045;28;20225;-60
2021/05/29 10:19:45;;;;;;;6.55;4.30;;;16.60;99.90;;;;;;5073039;28;20208;-59
2021/05/29 10:22:14;;;;;;;5.90;4.70;;;16.80;99.90;;;;;;5072692;28;20359;-60
2021/05/29 10:24:44;;;;;;;7.63;4.40;;;16.80;99.90;;;;;;5072758;28;20548;-60
2021/05/29 10:27:13;;;;;;;4.95;4.20;;;16.60;99.90;;;;;;5072538;28;20204;-61
2021/05/29 10:29:42;;;;;;;5.00;3.97;;;16.30;99.90;;;;;;5072660;28;20204;-59
2021/05/29 10:32:14;;;;;;;5.68;3.92;;;15.90;99.90;;;;;;5072176;28;20313;-59
2021/05/29 10:34:53;;;;;;;7.20;4.30;;;15.90;99.90;;;;;;5072395;28;20189;-59
2021/05/29 10:37:31;;;;;;;5.38;4.20;;;16.00;99.90;;;;;;5072834;28;20201;-59
2021/05/29 10:40:22;;;;;;;5.40;4.45;;;16.00;99.90;;;;;;5072767;28;20180;-60
2021/05/29 10:43:11;;;;;;;4.13;3.72;;;16.10;99.90;;;;;;5072689;28;20282;-59
2021/05/29 10:45:39;;;;;;;6.47;4.55;;;16.30;99.90;;;;;;5082081;28;20207;-59
2021/05/29 10:48:11;;;;;;;6.50;4.80;;;16.30;99.90;;;;;;5092443;28;20693;-60
2021/05/29 10:51:04;;;;;;;6.38;4.60;;;16.20;99.90;;;;;;5092038;28;20630;-60
2021/05/29 10:53:52;;;;;;;5.63;4.15;;;16.30;99.90;;;;;;5092954;28;20219;-60
2021/05/29 10:56:35;;;;;;;6.68;4.75;;;16.50;99.90;;;;;;5090956;28;20670;-60
2021/05/29 10:59:14;;;;;;;5.63;4.80;;;16.50;99.90;;;;;;5072891;28;20238;-61
2021/05/29 11:02:10;;;;;;;8.13;5.25;;;16.60;99.90;;;;;;5072493;28;20204;-59
2021/05/29 11:04:39;;;;;;;6.43;5.60;;;16.90;99.90;;;;;;5072310;28;20238;-60
2021/05/29 11:07:27;;;;;;;6.20;5.60;;;17.10;99.90;;;;;;5072743;28;20283;-59
2021/05/29 11:09:57;;;;;;;8.32;5.43;;;16.80;99.90;;;;;;5072598;28;20627;-59
2021/05/29 11:12:49;;;;;;;6.63;5.28;;;16.70;99.90;;;;;;5071959;28;20212;-58
2021/05/29 11:15:16;;;;;;;6.18;5.47;;;16.60;99.90;;;;;;5071177;28;20661;-60
2021/05/29 11:18:08;;;;;;;7.63;5.10;;;16.50;99.90;;;;;;5072434;28;20210;-60
2021/05/29 11:21:01;;;;;;;6.60;5.82;;;16.30;99.90;;;;;;5071939;28;20220;-60
2021/05/29 11:23:28;;;;;;;5.47;4.80;;;16.40;99.90;;;;;;5072554;28;20523;-60
2021/05/29 11:25:56;;;;;;;7.18;5.35;;;16.60;99.90;;;;;;5071895;28;20206;-60
2021/05/29 11:28:24;;;;;;;6.25;5.65;;;16.70;99.90;;;;;;5072166;28;20663;-59
2021/05/29 11:30:56;;;;;;;5.43;4.93;;;16.60;99.90;;;;;;5072027;28;20220;-58
2021/05/29 11:33:23;;;;;;;6.25;4.30;;;16.50;99.90;;;;;;5072277;28;20189;-60
2021/05/29 11:35:51;;;;;;;5.50;4.32;;;16.30;99.90;;;;;;5072142;28;20207;-60
2021/05/29 11:38:25;;;;;;;5.25;4.30;;;16.20;99.90;;;;;;5072302;28;20185;-59
2021/05/29 11:40:56;;;;;;;4.47;3.97;;;16.20;99.90;;;;;;5071978;28;20201;-60
2021/05/29 11:43:36;;;;;;;4.40;3.95;;;16.00;99.90;;;;;;5072144;28;20205;-59
2021/05/29 11:46:05;;;;;;;3.75;3.30;;;15.70;99.90;;;;;;5084822;28;20192;-60
2021/05/29 11:48:35;;;;;;;3.90;3.47;;;15.70;99.90;;;;;;5092481;28;20200;-59
2021/05/29 11:51:09;;;;;;;4.70;3.53;;;15.60;99.90;;;;;;5091883;28;20228;-60
2021/05/29 11:53:46;;;;;;;4.05;3.60;;;15.60;99.90;;;;;;5092342;28;20188;-59
2021/05/29 11:56:16;;;;;;;4.40;4.00;;;15.80;99.90;;;;;;5092187;28;20194;-60
2021/05/29 11:58:46;;;;;;;4.88;3.83;;;15.90;99.90;;;;;;5095100;28;21043;-60
2021/05/29 12:01:15;;;;;;;5.13;3.92;;;16.00;99.90;;;;;;5096046;28;20271;-60
2021/05/29 12:03:48;;;;;;;4.28;3.80;;;16.10;99.90;;;;;;5095857;28;20598;-60
2021/05/29 12:06:38;;;;;;;4.50;3.80;;;16.20;99.90;;;;;;5095882;28;20617;-59
2021/05/29 12:09:08;;;;;;;5.53;3.90;;;16.20;99.90;;;;;;5081969;28;20203;-59
2021/05/29 12:11:38;;;;;;;5.72;4.15;;;16.30;99.90;;;;;;5074953;28;20205;-60
2021/05/29 12:14:10;;;;;;;4.32;3.92;;;16.30;99.90;;;;;;5075552;28;20193;-60
2021/05/29 12:16:38;;;;;;;5.38;4.07;;;16.20;99.90;;;;;;5074773;28;20264;-60
2021/05/29 12:19:07;;;;;;;4.68;3.95;;;16.10;99.90;;;;;;5074784;28;20668;-60
2021/05/29 12:21:50;;;;;;;5.28;3.80;;;16.10;99.90;;;;;;5075272;28;20199;-59
2021/05/29 12:24:19;;;;;;;4.20;3.80;;;16.10;99.90;;;;;;5075082;28;20185;-59
2021/05/29 12:26:49;;;;;;;4.97;3.65;;;16.20;99.90;;;;;;5075109;28;20193;-59
2021/05/29 12:29:22;;;;;;;5.03;3.90;;;16.30;99.90;;;;;;5075126;28;20191;-60
2021/05/29 12:31:53;;;;;;;7.18;4.80;;;16.40;99.90;;;;;;5074838;28;20224;-60
2021/05/29 12:34:23;;;;;;;5.38;4.32;;;16.50;99.90;;;;;;5074441;28;20239;-60
2021/05/29 12:36:55;;;;;;;4.95;4.25;;;16.90;99.90;;;;;;5075147;28;20640;-60
2021/05/29 12:39:23;;;;;;;7.70;5.28;;;17.20;99.90;;;;;;5074654;28;20239;-58
2021/05/29 12:41:50;;;;;;;6.97;5.90;;;17.20;99.90;;;;;;5074661;28;20656;-59
2021/05/29 12:44:17;;;;;;;7.32;5.50;;;16.90;99.90;;;;;;5074689;28;20686;-59
2021/05/29 12:46:52;;;;;;;6.50;5.80;;;16.70;99.90;;;;;;5094372;28;20282;-60
2021/05/29 12:49:20;;;;;;;7.03;5.63;;;16.30;99.90;;;;;;5094960;28;20539;-59
2021/05/29 12:51:49;;;;;;;8.90;6.05;;;15.90;99.90;;;;;;5092586;28;20323;-60
2021/05/29 12:54:17;;;;;;;6.78;5.53;;;15.80;99.90;;;;;;5074811;28;20301;-60
2021/05/29 12:56:52;;;;;;;6.25;5.15;;;15.70;99.90;;;;;;5074667;28;20276;-61
2021/05/29 12:59:23;;;;;;;7.43;5.45;;;15.80;99.90;;;;;;5071854;28;20196;-59
2021/05/29 13:02:04;;;;;;;7.90;5.88;;;16.00;99.90;;;;;;5074165;28;20633;-60
2021/05/29 13:07:31;;;;;;;8.38;5.63;;;16.90;99.90;;;;;;5073121;28;20208;-58
2021/05/29 13:10:04;;;;;;;6.68;5.80;;;17.50;99.90;;;;;;5075858;28;20200;-59